createdAt,value
2022-08-18T00:00:11.019Z,19.7
2022-08-18T00:01:08.822Z,19.7
2022-08-18T00:02:09.014Z,19.6
2022-08-18T00:03:20.719Z,19.5
2022-08-18T00:04:24.317Z,19.5
2022-08-18T00:05:08.954Z,19.5
2022-08-18T00:06:08.856Z,19.5
2022-08-18T00:07:08.861Z,19.5
2022-08-18T00:08:08.865Z,19.5
2022-08-18T00:09:08.877Z,19.4
2022-08-18T00:10:18.628Z,19.4
2022-08-18T00:11:08.913Z,19.4
2022-08-18T00:12:08.897Z,19.4
2022-08-18T00:13:08.898Z,19.4
2022-08-18T00:14:08.907Z,19.3
2022-08-18T00:15:08.808Z,19.3
2022-08-18T00:16:08.822Z,19.2
2022-08-18T00:17:08.822Z,19.2
2022-08-18T00:18:08.823Z,19.1
2022-08-18T00:19:09.608Z,19.1
2022-08-18T00:20:08.950Z,19
2022-08-18T00:21:08.848Z,19
2022-08-18T00:22:08.852Z,19
2022-08-18T00:23:08.865Z,18.9
2022-08-18T00:24:08.807Z,18.9
2022-08-18T00:25:08.877Z,18.9
2022-08-18T00:26:08.900Z,19
2022-08-18T00:27:08.889Z,19
2022-08-18T00:28:08.893Z,19
2022-08-18T00:29:08.807Z,19
2022-08-18T00:30:08.802Z,19
2022-08-18T00:31:08.921Z,18.9
2022-08-18T00:32:08.910Z,18.9
2022-08-18T00:33:08.929Z,18.9
2022-08-18T00:34:08.935Z,18.8
2022-08-18T00:35:08.828Z,18.8
2022-08-18T00:36:08.847Z,18.8
2022-08-18T00:37:08.852Z,18.9
2022-08-18T00:38:08.871Z,18.9
2022-08-18T00:39:08.865Z,18.9
2022-08-18T00:40:09.057Z,18.9
2022-08-18T00:41:08.881Z,18.8
2022-08-18T00:42:08.809Z,18.8
2022-08-18T00:43:08.818Z,18.8
2022-08-18T00:44:08.844Z,18.7
2022-08-18T00:45:08.890Z,18.7
2022-08-18T00:46:08.906Z,18.7
2022-08-18T00:47:08.919Z,18.7
2022-08-18T00:48:08.921Z,18.7
2022-08-18T00:49:08.816Z,18.7
2022-08-18T00:50:08.825Z,18.6
2022-08-18T00:51:08.842Z,18.6
2022-08-18T00:52:08.841Z,18.6
2022-08-18T00:53:08.849Z,18.6
2022-08-18T00:54:08.953Z,18.7
2022-08-18T00:55:08.961Z,18.7
2022-08-18T00:56:08.803Z,18.6
2022-08-18T00:57:08.819Z,18.6
2022-08-18T00:58:08.875Z,18.7
2022-08-18T00:59:08.903Z,18.7
2022-08-18T01:00:08.890Z,18.8
2022-08-18T01:01:08.997Z,18.8
2022-08-18T01:02:08.907Z,18.8
2022-08-18T01:03:08.925Z,18.7
2022-08-18T01:04:08.920Z,18.7
2022-08-18T01:05:08.927Z,18.7
2022-08-18T01:06:08.832Z,18.7
2022-08-18T01:07:08.831Z,18.7
2022-08-18T01:08:08.856Z,18.7
2022-08-18T01:09:08.884Z,18.7
2022-08-18T01:10:08.860Z,18.7
2022-08-18T01:11:08.865Z,18.7
2022-08-18T01:12:45.949Z,18.7
2022-08-18T01:13:08.882Z,18.8
2022-08-18T01:14:08.884Z,18.8
2022-08-18T01:15:08.885Z,18.8
2022-08-18T01:16:08.896Z,18.9
2022-08-18T01:17:08.916Z,18.9
2022-08-18T01:18:08.906Z,18.9
2022-08-18T01:19:08.912Z,18.8
2022-08-18T01:20:08.935Z,18.9
2022-08-18T01:21:08.832Z,19
2022-08-18T01:22:08.869Z,19
2022-08-18T01:23:08.931Z,19
2022-08-18T01:24:08.838Z,19
2022-08-18T01:25:08.870Z,19
2022-08-18T01:26:08.964Z,18.9
2022-08-18T01:27:08.858Z,18.9
2022-08-18T01:28:08.867Z,18.8
2022-08-18T01:29:08.870Z,18.7
2022-08-18T01:30:08.878Z,18.6
2022-08-18T01:31:08.898Z,18.6
2022-08-18T01:32:08.836Z,18.6
2022-08-18T01:33:08.811Z,18.5
2022-08-18T01:34:08.907Z,18.5
2022-08-18T01:35:08.930Z,18.5
2022-08-18T01:36:08.866Z,18.5
2022-08-18T01:37:08.931Z,18.4
2022-08-18T01:38:08.833Z,18.3
2022-08-18T01:39:08.844Z,18.3
2022-08-18T01:41:22.241Z,18.3
2022-08-18T01:41:28.929Z,18.3
2022-08-18T01:42:08.970Z,18.2
2022-08-18T01:43:08.967Z,18.2
2022-08-18T01:44:08.978Z,18.2
2022-08-18T01:45:08.874Z,18.1
2022-08-18T01:46:08.879Z,18
2022-08-18T01:47:08.887Z,18
2022-08-18T01:48:08.825Z,18
2022-08-18T01:49:08.827Z,17.9
2022-08-18T01:50:08.872Z,17.9
2022-08-18T01:51:08.861Z,17.9
2022-08-18T01:52:08.823Z,17.9
2022-08-18T01:53:08.810Z,17.9
2022-08-18T01:54:08.818Z,17.9
2022-08-18T01:55:08.835Z,17.9
2022-08-18T01:56:08.816Z,17.9
2022-08-18T01:57:08.877Z,17.9
2022-08-18T01:58:08.867Z,17.9
2022-08-18T01:59:08.822Z,17.8
2022-08-18T02:00:08.812Z,17.7
2022-08-18T02:01:08.842Z,17.7
2022-08-18T02:02:08.922Z,17.7
2022-08-18T02:03:08.819Z,17.8
2022-08-18T02:04:33.842Z,17.9
2022-08-18T02:05:08.879Z,17.9
2022-08-18T02:06:08.818Z,17.8
2022-08-18T02:07:08.844Z,17.8
2022-08-18T02:08:08.883Z,17.8
2022-08-18T02:09:08.825Z,17.8
2022-08-18T02:10:11.970Z,17.9
2022-08-18T02:11:08.871Z,18
2022-08-18T02:12:08.870Z,18.1
2022-08-18T02:13:08.820Z,18.2
2022-08-18T02:14:08.818Z,18.3
2022-08-18T02:15:08.818Z,18.3
2022-08-18T02:16:08.816Z,18.4
2022-08-18T02:17:08.834Z,18.5
2022-08-18T02:18:08.915Z,18.5
2022-08-18T02:19:08.858Z,18.7
2022-08-18T02:20:08.833Z,18.7
2022-08-18T02:21:10.312Z,18.8
2022-08-18T02:22:08.824Z,18.8
2022-08-18T02:23:08.817Z,18.7
2022-08-18T02:24:08.841Z,18.8
2022-08-18T02:25:08.910Z,18.6
2022-08-18T02:26:08.875Z,18.5
2022-08-18T02:27:08.840Z,18.5
2022-08-18T02:28:08.829Z,18.6
2022-08-18T02:29:08.827Z,18.5
2022-08-18T02:30:08.834Z,18.5
2022-08-18T02:31:08.851Z,18.5
2022-08-18T02:32:08.866Z,18.5
2022-08-18T02:33:08.881Z,18.4
2022-08-18T02:34:08.847Z,18.4
2022-08-18T02:35:10.293Z,18.3
2022-08-18T02:36:08.836Z,18.2
2022-08-18T02:37:14.403Z,18.3
2022-08-18T02:38:08.840Z,18.2
2022-08-18T02:39:08.881Z,18.2
2022-08-18T02:40:08.945Z,18.3
2022-08-18T02:41:08.837Z,18.4
2022-08-18T02:42:08.837Z,18.3
2022-08-18T02:43:08.833Z,18.2
2022-08-18T02:44:08.827Z,18.2
2022-08-18T02:45:08.823Z,18.2
2022-08-18T02:46:08.888Z,18.2
2022-08-18T02:47:08.877Z,18.1
2022-08-18T02:48:08.827Z,18.1
2022-08-18T02:49:08.827Z,18
2022-08-18T02:50:08.855Z,18
2022-08-18T02:51:08.825Z,18.1
2022-08-18T02:52:08.874Z,18
2022-08-18T02:53:08.879Z,18
2022-08-18T02:54:08.881Z,18
2022-08-18T02:55:08.842Z,18
2022-08-18T02:56:08.838Z,18.1
2022-08-18T02:57:08.837Z,18.1
2022-08-18T02:58:08.849Z,18.1
2022-08-18T02:59:08.846Z,18
2022-08-18T03:00:08.888Z,18
2022-08-18T03:01:08.922Z,18
2022-08-18T03:02:08.827Z,18.1
2022-08-18T03:03:08.831Z,18.1
2022-08-18T03:04:08.832Z,18.1
2022-08-18T03:05:08.847Z,18.1
2022-08-18T03:06:08.851Z,18.2
2022-08-18T03:07:08.873Z,18.2
2022-08-18T03:08:08.881Z,18.3
2022-08-18T03:09:08.841Z,18.3
2022-08-18T03:10:31.693Z,18.2
2022-08-18T03:11:08.838Z,18.2
2022-08-18T03:12:08.847Z,18.2
2022-08-18T03:13:08.835Z,18.1
2022-08-18T03:14:11.281Z,18.2
2022-08-18T03:15:08.905Z,18
2022-08-18T03:16:08.945Z,18
2022-08-18T03:17:08.855Z,18
2022-08-18T03:18:08.977Z,18
2022-08-18T03:19:08.867Z,18
2022-08-18T03:20:08.883Z,18.1
2022-08-18T03:21:08.889Z,18.1
2022-08-18T03:22:28.370Z,18.1
2022-08-18T03:23:09.794Z,18.2
2022-08-18T03:24:09.220Z,18.3
2022-08-18T03:25:08.893Z,18.2
2022-08-18T03:26:08.900Z,18.2
2022-08-18T03:27:08.917Z,18.2
2022-08-18T03:28:08.914Z,18.3
2022-08-18T03:29:08.929Z,18.2
2022-08-18T03:30:11.483Z,18.2
2022-08-18T03:31:08.938Z,18.1
2022-08-18T03:32:08.949Z,18
2022-08-18T03:33:08.849Z,18
2022-08-18T03:34:08.844Z,18.1
2022-08-18T03:35:08.969Z,18.1
2022-08-18T03:36:08.974Z,18.2
2022-08-18T03:37:08.845Z,18.3
2022-08-18T03:38:08.886Z,18.2
2022-08-18T03:39:08.892Z,18.1
2022-08-18T03:40:09.003Z,18
2022-08-18T03:41:08.896Z,18
2022-08-18T03:42:08.913Z,18.1
2022-08-18T03:43:23.603Z,18.2
2022-08-18T03:44:08.917Z,18.1
2022-08-18T03:45:13.427Z,18.1
2022-08-18T03:46:08.925Z,18.1
2022-08-18T03:47:08.843Z,18.2
2022-08-18T03:48:08.855Z,18.5
2022-08-18T03:49:08.955Z,18.5
2022-08-18T03:50:08.961Z,18.5
2022-08-18T03:51:08.871Z,18.4
2022-08-18T03:52:08.888Z,18.4
2022-08-18T03:53:08.885Z,18.4
2022-08-18T03:54:08.902Z,18.5
2022-08-18T03:55:08.901Z,18.7
2022-08-18T03:56:09.022Z,18.8
2022-08-18T03:57:08.908Z,18.8
2022-08-18T03:58:08.904Z,18.7
2022-08-18T03:59:08.934Z,18.8
2022-08-18T04:00:09.024Z,18.8
2022-08-18T04:01:08.938Z,18.8
2022-08-18T04:02:08.852Z,18.8
2022-08-18T04:03:08.935Z,18.9
2022-08-18T04:04:08.885Z,18.8
2022-08-18T04:05:08.955Z,18.7
2022-08-18T04:06:12.573Z,18.7
2022-08-18T04:07:08.866Z,18.7
2022-08-18T04:08:08.871Z,18.5
2022-08-18T04:09:08.872Z,18.4
2022-08-18T04:10:19.102Z,18.5
2022-08-18T04:11:08.982Z,18.5
2022-08-18T04:12:08.890Z,18.6
2022-08-18T04:13:08.892Z,18.7
2022-08-18T04:14:08.848Z,18.7
2022-08-18T04:15:08.848Z,18.8
2022-08-18T04:16:08.845Z,18.9
2022-08-18T04:17:08.895Z,18.9
2022-08-18T04:18:09.271Z,19.1
2022-08-18T04:19:08.953Z,19.2
2022-08-18T04:20:08.973Z,19.2
2022-08-18T04:21:08.959Z,19.2
2022-08-18T04:22:08.959Z,19.2
2022-08-18T04:23:08.971Z,19.3
2022-08-18T04:24:08.966Z,19.3
2022-08-18T04:25:08.978Z,19.2
2022-08-18T04:26:08.905Z,19.2
2022-08-18T04:27:08.851Z,19.2
2022-08-18T04:28:08.841Z,19.1
2022-08-18T04:29:08.914Z,19.2
2022-08-18T04:30:08.928Z,19.2
2022-08-18T04:31:09.208Z,19.2
2022-08-18T04:32:08.920Z,19.2
2022-08-18T04:33:08.932Z,19.2
2022-08-18T04:34:08.931Z,19.2
2022-08-18T04:35:12.378Z,19.1
2022-08-18T04:36:08.947Z,19
2022-08-18T04:37:08.952Z,19
2022-08-18T04:38:08.963Z,18.8
2022-08-18T04:39:08.974Z,18.5
2022-08-18T04:40:08.920Z,18.6
2022-08-18T04:41:08.851Z,18.6
2022-08-18T04:42:08.881Z,18.7
2022-08-18T04:43:08.900Z,18.6
2022-08-18T04:44:09.307Z,18.5
2022-08-18T04:45:08.898Z,18.6
2022-08-18T04:46:08.895Z,18.8
2022-08-18T04:47:08.913Z,18.9
2022-08-18T04:48:08.911Z,19
2022-08-18T04:49:08.953Z,18.9
2022-08-18T04:50:08.933Z,18.8
2022-08-18T04:51:08.940Z,18.9
2022-08-18T04:52:37.208Z,18.9
2022-08-18T04:53:08.873Z,18.9
2022-08-18T04:54:08.859Z,18.7
2022-08-18T04:55:08.958Z,18.5
2022-08-18T04:56:08.858Z,18.5
2022-08-18T04:57:08.890Z,18.4
2022-08-18T04:58:08.988Z,18.5
2022-08-18T04:59:09.034Z,18.5
2022-08-18T05:00:08.901Z,18.4
2022-08-18T05:01:08.997Z,18.4
2022-08-18T05:02:12.765Z,18.4
2022-08-18T05:03:08.934Z,18.3
2022-08-18T05:04:08.936Z,18.3
2022-08-18T05:05:08.907Z,18.4
2022-08-18T05:06:08.944Z,18.5
2022-08-18T05:07:08.858Z,18.7
2022-08-18T05:08:08.856Z,18.7
2022-08-18T05:09:08.969Z,18.7
2022-08-18T05:10:08.963Z,18.7
2022-08-18T05:11:08.963Z,18.6
2022-08-18T05:12:08.983Z,18.6
2022-08-18T05:13:08.894Z,18.5
2022-08-18T05:14:08.900Z,18.4
2022-08-18T05:15:08.894Z,18.4
2022-08-18T05:16:11.591Z,18.4
2022-08-18T05:17:08.866Z,18.3
2022-08-18T05:18:08.869Z,18.3
2022-08-18T05:19:08.935Z,18.3
2022-08-18T05:20:08.916Z,18.3
2022-08-18T05:21:08.859Z,18.3
2022-08-18T05:22:08.861Z,18.2
2022-08-18T05:23:08.948Z,18.2
2022-08-18T05:24:08.969Z,18.2
2022-08-18T05:25:08.959Z,18.2
2022-08-18T05:26:08.972Z,18.2
2022-08-18T05:27:08.978Z,18.1
2022-08-18T05:28:08.983Z,18.1
2022-08-18T05:29:18.373Z,18.1
2022-08-18T05:30:08.882Z,18.1
2022-08-18T05:31:13.554Z,18.1
2022-08-18T05:32:09.685Z,18.2
2022-08-18T05:33:08.918Z,18.2
2022-08-18T05:34:08.919Z,18.2
2022-08-18T05:35:08.889Z,18.2
2022-08-18T05:36:08.919Z,18.3
2022-08-18T05:37:08.957Z,18.3
2022-08-18T05:38:08.876Z,18.3
2022-08-18T05:39:08.871Z,18.4
2022-08-18T05:40:11.671Z,18.4
2022-08-18T05:41:14.041Z,18.4
2022-08-18T05:42:08.861Z,18.5
2022-08-18T05:43:09.417Z,18.5
2022-08-18T05:44:08.982Z,18.5
2022-08-18T05:45:08.872Z,18.5
2022-08-18T05:46:08.883Z,18.5
2022-08-18T05:47:08.993Z,18.5
2022-08-18T05:48:09.065Z,18.5
2022-08-18T05:49:08.904Z,18.5
2022-08-18T05:50:08.907Z,18.4
2022-08-18T05:51:08.870Z,18.3
2022-08-18T05:52:08.919Z,18.2
2022-08-18T05:53:09.300Z,18.3
2022-08-18T05:54:08.904Z,18.3
2022-08-18T05:55:08.928Z,18.3
2022-08-18T05:56:08.951Z,18.3
2022-08-18T05:57:08.963Z,18.2
2022-08-18T05:58:08.968Z,18.2
2022-08-18T05:59:08.957Z,18.2
2022-08-18T06:00:09.001Z,18.1
2022-08-18T06:01:09.031Z,18.1
2022-08-18T06:02:08.879Z,18.1
2022-08-18T06:03:09.133Z,18.2
2022-08-18T06:04:08.925Z,18.2
2022-08-18T06:05:08.921Z,18.2
2022-08-18T06:06:08.924Z,18.2
2022-08-18T06:07:08.870Z,18.3
2022-08-18T06:08:08.937Z,18.2
2022-08-18T06:09:08.934Z,18.2
2022-08-18T06:10:08.940Z,18.2
2022-08-18T06:11:17.338Z,18.2
2022-08-18T06:12:08.971Z,18.3
2022-08-18T06:13:08.965Z,18.3
2022-08-18T06:14:08.958Z,18.1
2022-08-18T06:15:08.881Z,18
2022-08-18T06:16:08.885Z,18
2022-08-18T06:17:08.877Z,18
2022-08-18T06:18:08.896Z,18.1
2022-08-18T06:19:08.872Z,18
2022-08-18T06:20:08.896Z,18
2022-08-18T06:21:08.902Z,18.1
2022-08-18T06:22:08.906Z,18.2
2022-08-18T06:23:08.908Z,18.2
2022-08-18T06:24:08.920Z,18.2
2022-08-18T06:25:08.919Z,18.2
2022-08-18T06:26:08.931Z,18.4
2022-08-18T06:27:08.953Z,18.3
2022-08-18T06:28:08.869Z,18.2
2022-08-18T06:29:08.927Z,18.2
2022-08-18T06:30:08.954Z,18.1
2022-08-18T06:31:08.865Z,18.1
2022-08-18T06:32:08.873Z,18.1
2022-08-18T06:33:08.877Z,17.9
2022-08-18T06:34:08.870Z,17.8
2022-08-18T06:35:08.887Z,17.8
2022-08-18T06:36:08.892Z,17.8
2022-08-18T06:37:09.004Z,17.8
2022-08-18T06:38:08.906Z,17.9
2022-08-18T06:39:08.909Z,17.9
2022-08-18T06:40:08.998Z,18
2022-08-18T06:41:08.870Z,18
2022-08-18T06:42:08.939Z,18
2022-08-18T06:43:08.871Z,17.9
2022-08-18T06:44:08.886Z,17.8
2022-08-18T06:45:08.885Z,17.8
2022-08-18T06:46:08.966Z,17.8
2022-08-18T06:47:08.970Z,17.8
2022-08-18T06:48:15.737Z,17.8
2022-08-18T06:49:08.972Z,17.8
2022-08-18T06:50:08.885Z,18
2022-08-18T06:51:08.992Z,18
2022-08-18T06:52:08.896Z,18
2022-08-18T06:53:19.043Z,18
2022-08-18T06:54:08.873Z,17.9
2022-08-18T06:55:08.914Z,18
2022-08-18T06:56:08.872Z,18
2022-08-18T06:57:09.049Z,18
2022-08-18T06:58:08.938Z,18.1
2022-08-18T06:59:08.960Z,18
2022-08-18T07:00:08.943Z,17.9
2022-08-18T07:01:09.021Z,18
2022-08-18T07:02:08.869Z,18
2022-08-18T07:03:08.886Z,18
2022-08-18T07:04:08.974Z,18.1
2022-08-18T07:05:08.980Z,18.1
2022-08-18T07:06:08.880Z,18.1
2022-08-18T07:07:09.014Z,18.1
2022-08-18T07:08:08.882Z,18.1
2022-08-18T07:09:08.874Z,18.1
2022-08-18T07:10:08.902Z,18.1
2022-08-18T07:11:08.915Z,18.1
2022-08-18T07:12:08.926Z,18.1
2022-08-18T07:13:08.872Z,18.1
2022-08-18T07:14:16.625Z,18.1
2022-08-18T07:15:08.938Z,18.2
2022-08-18T07:16:08.944Z,18.2
2022-08-18T07:17:08.877Z,18.3
2022-08-18T07:18:08.967Z,18.3
2022-08-18T07:19:08.898Z,18.1
2022-08-18T07:20:08.979Z,18.1
2022-08-18T07:21:08.996Z,18
2022-08-18T07:22:08.882Z,18
2022-08-18T07:23:08.896Z,17.9
2022-08-18T07:24:24.250Z,17.9
2022-08-18T07:25:09.018Z,17.8
2022-08-18T07:26:08.951Z,17.9
2022-08-18T07:27:08.919Z,17.8
2022-08-18T07:28:08.914Z,17.8
2022-08-18T07:29:08.926Z,17.8
2022-08-18T07:30:08.892Z,17.8
2022-08-18T07:31:17.062Z,17.9
2022-08-18T07:32:12.607Z,17.9
2022-08-18T07:33:08.962Z,17.9
2022-08-18T07:34:08.889Z,18
2022-08-18T07:35:08.955Z,18
2022-08-18T07:36:08.870Z,18
2022-08-18T07:37:08.979Z,18
2022-08-18T07:38:24.860Z,18
2022-08-18T07:39:08.991Z,18
2022-08-18T07:40:09.080Z,18.1
2022-08-18T07:41:08.873Z,18.1
2022-08-18T07:42:08.909Z,18.1
2022-08-18T07:43:08.913Z,18.1
2022-08-18T07:44:13.530Z,18.1
2022-08-18T07:45:08.873Z,18.2
2022-08-18T07:46:08.937Z,18.2
2022-08-18T07:47:08.939Z,18.2
2022-08-18T07:48:27.283Z,18.2
2022-08-18T07:49:08.947Z,18.2
2022-08-18T07:50:26.971Z,18.2
2022-08-18T07:51:09.202Z,18.3
2022-08-18T07:52:14.630Z,18.2
2022-08-18T07:53:08.997Z,18.3
2022-08-18T07:54:20.069Z,18.4
2022-08-18T07:55:09.994Z,18.5
2022-08-18T07:56:09.071Z,18.6
2022-08-18T07:57:08.913Z,18.5
2022-08-18T07:58:08.906Z,18.5
2022-08-18T07:59:08.878Z,18.6
2022-08-18T08:00:10.495Z,18.8
2022-08-18T08:01:08.930Z,18.9
2022-08-18T08:02:08.884Z,18.9
2022-08-18T08:03:08.881Z,19
2022-08-18T08:04:08.897Z,19.1
2022-08-18T08:05:08.964Z,19.1
2022-08-18T08:06:09.198Z,19.1
2022-08-18T08:07:25.519Z,19.1
2022-08-18T08:08:08.967Z,19.1
2022-08-18T08:09:08.884Z,19
2022-08-18T08:10:08.983Z,19
2022-08-18T08:11:08.986Z,19.1
2022-08-18T08:12:08.905Z,19.2
2022-08-18T08:13:09.932Z,19.3
2022-08-18T08:14:08.875Z,19.4
2022-08-18T08:15:08.903Z,19.4
2022-08-18T08:16:08.961Z,19.5
2022-08-18T08:17:08.878Z,19.5
2022-08-18T08:18:08.937Z,19.5
2022-08-18T08:19:11.300Z,19.5
2022-08-18T08:20:08.945Z,19.4
2022-08-18T08:21:08.944Z,19.4
2022-08-18T08:22:08.958Z,19.2
2022-08-18T08:23:08.967Z,19.1
2022-08-18T08:24:08.875Z,19.2
2022-08-18T08:25:28.334Z,19.2
2022-08-18T08:26:09.106Z,19.4
2022-08-18T08:27:08.990Z,19.4
2022-08-18T08:28:08.906Z,19.5
2022-08-18T08:29:09.005Z,19.5
2022-08-18T08:30:08.886Z,19.4
2022-08-18T08:31:33.286Z,19.4
2022-08-18T08:32:08.886Z,19.4
2022-08-18T08:33:08.939Z,19.5
2022-08-18T08:34:08.935Z,19.5
2022-08-18T08:35:14.060Z,19.7
2022-08-18T08:36:08.943Z,19.7
2022-08-18T08:37:08.894Z,19.8
2022-08-18T08:38:38.758Z,19.7
2022-08-18T08:39:08.964Z,19.8
2022-08-18T08:40:09.045Z,19.9
2022-08-18T08:41:09.003Z,19.9
2022-08-18T08:42:30.382Z,19.9
2022-08-18T08:43:09.003Z,19.9
2022-08-18T08:44:08.929Z,20
2022-08-18T08:45:08.922Z,20
2022-08-18T08:46:08.927Z,20
2022-08-18T08:47:08.953Z,20
2022-08-18T08:48:09.813Z,20
2022-08-18T08:49:09.042Z,20.1
2022-08-18T08:50:08.977Z,20
2022-08-18T08:51:08.894Z,20
2022-08-18T08:52:08.961Z,20
2022-08-18T08:53:08.956Z,20
2022-08-18T08:54:09.017Z,20
2022-08-18T08:55:08.967Z,19.8
2022-08-18T08:56:08.973Z,19.9
2022-08-18T08:57:09.006Z,20
2022-08-18T08:58:08.981Z,19.9
2022-08-18T08:59:08.908Z,19.9
2022-08-18T09:00:09.001Z,20
2022-08-18T09:01:08.896Z,20.1
2022-08-18T09:02:08.989Z,20
2022-08-18T09:03:08.943Z,20.1
2022-08-18T09:04:08.946Z,20.1
2022-08-18T09:05:09.839Z,20.1
2022-08-18T09:06:08.886Z,20.2
2022-08-18T09:07:08.942Z,20.2
2022-08-18T09:08:08.892Z,20.2
2022-08-18T09:09:08.898Z,20.2
2022-08-18T09:10:08.941Z,20.2
2022-08-18T09:11:08.982Z,20.3
2022-08-18T09:12:08.982Z,20.3
2022-08-18T09:13:08.998Z,20.1
2022-08-18T09:14:08.992Z,20.1
2022-08-18T09:15:08.906Z,20.3
2022-08-18T09:16:13.447Z,20.3
2022-08-18T09:17:08.934Z,20.4
2022-08-18T09:18:08.911Z,20.5
2022-08-18T09:19:08.934Z,20.4
2022-08-18T09:20:08.943Z,20.4
2022-08-18T09:21:08.910Z,20.5
2022-08-18T09:22:08.943Z,20.5
2022-08-18T09:23:08.952Z,20.5
2022-08-18T09:24:08.974Z,20.5
2022-08-18T09:25:08.961Z,20.3
2022-08-18T09:26:08.961Z,20.2
2022-08-18T09:27:08.961Z,20.1
2022-08-18T09:28:11.503Z,20.1
2022-08-18T09:29:09.002Z,20
2022-08-18T09:30:08.906Z,20
2022-08-18T09:31:09.260Z,20
2022-08-18T09:32:11.605Z,20
2022-08-18T09:33:18.844Z,20
2022-08-18T09:34:10.890Z,20
2022-08-18T09:35:08.904Z,19.9
2022-08-18T09:36:10.318Z,19.9
2022-08-18T09:37:08.934Z,19.9
2022-08-18T09:38:09.054Z,19.8
2022-08-18T09:39:09.056Z,19.9
2022-08-18T09:40:10.982Z,20
2022-08-18T09:41:08.927Z,20
2022-08-18T09:42:08.964Z,20.1
2022-08-18T09:43:09.141Z,20.2
2022-08-18T09:44:08.897Z,20.4
2022-08-18T09:45:08.991Z,20.3
2022-08-18T09:46:08.991Z,20.2
2022-08-18T09:47:09.013Z,20.1
2022-08-18T09:48:10.477Z,20.1
2022-08-18T09:49:09.011Z,20.1
2022-08-18T09:50:20.536Z,20.2
2022-08-18T09:51:08.959Z,20.3
2022-08-18T09:52:09.041Z,20.4
2022-08-18T09:53:09.040Z,20.4
2022-08-18T09:54:08.941Z,20.5
2022-08-18T09:55:08.970Z,20.5
2022-08-18T09:56:08.909Z,20.3
2022-08-18T09:57:08.970Z,20.2
2022-08-18T09:58:08.916Z,20.2
2022-08-18T09:59:10.770Z,20.4
2022-08-18T10:00:09.011Z,20.4
2022-08-18T10:01:09.006Z,20.6
2022-08-18T10:02:14.152Z,20.5
2022-08-18T10:03:08.989Z,20.5
2022-08-18T10:04:09.003Z,20.6
2022-08-18T10:05:09.108Z,20.6
2022-08-18T10:06:12.453Z,20.5
2022-08-18T10:07:09.026Z,20.7
2022-08-18T10:08:08.920Z,20.7
2022-08-18T10:10:56.957Z,20.9
2022-08-18T10:11:10.158Z,20.8
2022-08-18T10:12:08.960Z,20.9
2022-08-18T10:13:08.941Z,20.9
2022-08-18T10:14:09.638Z,20.9
2022-08-18T10:15:08.903Z,21
2022-08-18T10:16:10.956Z,21.1
2022-08-18T10:17:23.566Z,21.3
2022-08-18T10:18:08.988Z,21.4
2022-08-18T10:19:08.910Z,21.2
2022-08-18T10:20:09.003Z,21.2
2022-08-18T10:21:09.016Z,21.3
2022-08-18T10:22:08.932Z,21.3
2022-08-18T10:23:08.916Z,21.2
2022-08-18T10:25:21.310Z,21
2022-08-18T10:26:13.372Z,21.1
2022-08-18T10:27:09.067Z,21.2
2022-08-18T10:28:08.941Z,21.3
2022-08-18T10:29:08.954Z,21.2
2022-08-18T10:30:10.075Z,21.3
2022-08-18T10:31:10.130Z,21.5
2022-08-18T10:32:08.977Z,21.6
2022-08-18T10:33:17.806Z,21.6
2022-08-18T10:34:17.055Z,21.7
2022-08-18T10:35:08.926Z,21.6
2022-08-18T10:36:11.267Z,21.5
2022-08-18T10:37:08.907Z,21.6
2022-08-18T10:38:08.918Z,21.7
2022-08-18T10:39:08.918Z,21.8
2022-08-18T10:40:08.995Z,21.9
2022-08-18T10:42:11.245Z,22.6
2022-08-18T10:43:34.291Z,22.9
2022-08-18T10:44:27.807Z,23.4
2022-08-18T10:45:09.421Z,23.7
2022-08-18T10:46:25.438Z,23.7
2022-08-18T10:48:16.633Z,23.7
2022-08-18T10:49:08.992Z,23.5
2022-08-18T10:50:08.989Z,23.5
2022-08-18T10:51:09.001Z,23.5
2022-08-18T10:52:08.900Z,23.6
2022-08-18T10:53:38.844Z,23.6
2022-08-18T10:54:08.932Z,23.6
2022-08-18T10:56:09.036Z,24.1
2022-08-18T10:57:08.935Z,24.3
2022-08-18T10:58:08.949Z,24.1
2022-08-18T10:59:16.274Z,24
2022-08-18T11:01:08.929Z,23.9
2022-08-18T11:02:08.971Z,24.1
2022-08-18T11:03:39.621Z,24.2
2022-08-18T11:04:14.060Z,24
2022-08-18T11:05:08.919Z,23.7
2022-08-18T11:06:18.029Z,23.7
2022-08-18T11:07:08.994Z,23.5
2022-08-18T11:08:16.061Z,23.4
2022-08-18T11:09:09.026Z,23.3
2022-08-18T11:12:09.037Z,23.1
2022-08-18T11:13:10.537Z,23
2022-08-18T11:14:09.075Z,23
2022-08-18T11:15:23.132Z,23
2022-08-18T11:16:10.131Z,23
2022-08-18T11:17:08.931Z,23.2
2022-08-18T11:18:10.406Z,23.4
2022-08-18T11:19:08.975Z,23.3
2022-08-18T11:20:09.066Z,23.3
2022-08-18T11:21:12.609Z,23.4
2022-08-18T11:22:09.024Z,23.4
2022-08-18T11:23:08.996Z,23.5
2022-08-18T11:24:09.873Z,23.6
2022-08-18T11:25:09.001Z,23.6
2022-08-18T11:26:09.025Z,23.6
2022-08-18T11:28:08.921Z,23.7
2022-08-18T11:29:08.917Z,23.7
2022-08-18T11:30:09.183Z,23.9
2022-08-18T11:31:08.957Z,24
2022-08-18T11:32:10.967Z,24.1
2022-08-18T11:33:08.968Z,24.1
2022-08-18T11:34:08.968Z,24.1
2022-08-18T11:35:08.968Z,24
2022-08-18T11:36:09.081Z,24.1
2022-08-18T11:37:09.276Z,24.3
2022-08-18T11:38:12.442Z,24.3
2022-08-18T11:39:08.988Z,24.1
2022-08-18T11:40:09.708Z,24.2
2022-08-18T11:42:08.930Z,24.1
2022-08-18T11:43:09.028Z,24.3
2022-08-18T11:44:09.030Z,24.6
2022-08-18T11:45:09.064Z,24.8
2022-08-18T11:46:09.001Z,24.8
2022-08-18T11:47:08.955Z,25
2022-08-18T11:48:08.965Z,25.3
2022-08-18T11:49:08.938Z,25.6
2022-08-18T11:50:08.969Z,25.8
2022-08-18T11:51:08.989Z,26.1
2022-08-18T11:52:08.988Z,26.4
2022-08-18T11:53:08.994Z,26.9
2022-08-18T11:54:08.993Z,27.1
2022-08-18T11:55:16.526Z,27.1
2022-08-18T11:56:13.297Z,26.8
2022-08-18T11:57:10.072Z,26.8
2022-08-18T11:59:08.986Z,26.8
2022-08-18T12:00:09.032Z,26.9
2022-08-18T12:01:09.036Z,26.5
2022-08-18T12:02:08.934Z,26.8
2022-08-18T12:03:08.947Z,27.2
2022-08-18T12:04:08.937Z,27.7
2022-08-18T12:05:09.070Z,28.1
2022-08-18T12:06:08.955Z,28.1
2022-08-18T12:07:08.930Z,28.2
2022-08-18T12:08:11.258Z,27.9
2022-08-18T12:09:08.995Z,27.4
2022-08-18T12:10:16.236Z,26.7
2022-08-18T12:12:08.947Z,25.7
2022-08-18T12:13:09.013Z,25.3
2022-08-18T12:14:31.187Z,25.1
2022-08-18T12:15:17.126Z,25.1
2022-08-18T12:16:09.031Z,25
2022-08-18T12:17:09.031Z,24.8
2022-08-18T12:18:09.042Z,24.5
2022-08-18T12:19:10.438Z,24.5
2022-08-18T12:20:09.084Z,24.8
2022-08-18T12:21:08.927Z,24.5
2022-08-18T12:22:11.953Z,24.3
2022-08-18T12:23:08.968Z,24.3
2022-08-18T12:24:08.972Z,24.2
2022-08-18T12:26:27.219Z,24.2
2022-08-18T12:27:20.884Z,24.4
2022-08-18T12:28:10.926Z,24.5
2022-08-18T12:29:11.137Z,24.7
2022-08-18T12:30:09.052Z,25.2
2022-08-18T12:31:17.018Z,25.3
2022-08-18T12:32:17.792Z,25.3
2022-08-18T12:33:12.264Z,25.5
2022-08-18T12:34:08.957Z,25.7
2022-08-18T12:35:09.485Z,26
2022-08-18T12:36:09.706Z,25.8
2022-08-18T12:37:42.940Z,25.8
2022-08-18T12:38:13.820Z,25.9
2022-08-18T12:39:08.976Z,26.2
2022-08-18T12:40:09.121Z,26.4
2022-08-18T12:41:09.194Z,25.9
2022-08-18T12:42:08.946Z,25.5
2022-08-18T12:43:09.015Z,25.3
2022-08-18T12:44:09.922Z,25.5
2022-08-18T12:45:09.028Z,25.9
2022-08-18T12:46:08.933Z,26.2
2022-08-18T12:47:09.003Z,26.2
2022-08-18T12:48:09.041Z,26
2022-08-18T12:49:09.036Z,25.9
2022-08-18T12:50:09.055Z,25.7
2022-08-18T12:51:08.954Z,25.9
2022-08-18T12:52:08.946Z,26.1
2022-08-18T12:53:08.973Z,26
2022-08-18T12:54:10.389Z,25.9
2022-08-18T12:55:10.329Z,26
2022-08-18T12:56:10.700Z,26.2
2022-08-18T12:57:09.043Z,26.3
2022-08-18T12:58:08.962Z,26.3
2022-08-18T12:59:08.943Z,26.1
2022-08-18T13:00:09.018Z,26.1
2022-08-18T13:01:09.066Z,26.2
2022-08-18T13:02:09.005Z,26.1
2022-08-18T13:03:09.031Z,26.2
2022-08-18T13:04:12.477Z,26.1
2022-08-18T13:05:09.046Z,26.3
2022-08-18T13:06:09.049Z,26.3
2022-08-18T13:07:09.067Z,26.3
2022-08-18T13:08:09.066Z,26.3
2022-08-18T13:09:16.619Z,26.4
2022-08-18T13:10:08.959Z,26.2
2022-08-18T13:11:10.425Z,26.4
2022-08-18T13:12:14.163Z,26.6
2022-08-18T13:13:09.004Z,26
2022-08-18T13:14:09.193Z,25.9
2022-08-18T13:15:09.108Z,25.8
2022-08-18T13:16:09.011Z,25.8
2022-08-18T13:17:13.112Z,25.9
2022-08-18T13:18:09.029Z,26
2022-08-18T13:19:10.716Z,26.4
2022-08-18T13:20:09.055Z,26.7
2022-08-18T13:21:08.973Z,26.6
2022-08-18T13:22:08.991Z,26.4
2022-08-18T13:23:08.973Z,26.3
2022-08-18T13:24:09.488Z,26.5
2022-08-18T13:25:08.965Z,27.1
2022-08-18T13:26:08.977Z,27.6
2022-08-18T13:27:13.578Z,28
2022-08-18T13:28:08.981Z,27.9
2022-08-18T13:29:10.240Z,28
2022-08-18T13:30:29.516Z,27.7
2022-08-18T13:31:09.011Z,27.5
2022-08-18T13:32:08.958Z,27
2022-08-18T13:33:35.181Z,27.1
2022-08-18T13:34:12.689Z,27.1
2022-08-18T13:35:13.513Z,27.4
2022-08-18T13:36:08.996Z,27.9
2022-08-18T13:37:09.017Z,28.2
2022-08-18T13:38:15.723Z,28.3